sensor_id;sensor_type;location;lat;lon;timestamp;temperature;humidity
51783;DHT22;37845;53.196;5.638;2023-02-28T00:01:30;5.50;99.90
51783;DHT22;37845;53.196;5.638;2023-02-28T00:03:56;5.60;99.90
51783;DHT22;37845;53.196;5.638;2023-02-28T00:06:22;4.60;99.90
51783;DHT22;37845;53.196;5.638;2023-02-28T00:08:49;4.80;99.90
51783;DHT22;37845;53.196;5.638;2023-02-28T00:11:16;4.60;99.90
51783;DHT22;37845;53.196;5.638;2023-02-28T00:13:44;5.10;99.90
51783;DHT22;37845;53.196;5.638;2023-02-28T00:16:17;5.30;99.90
51783;DHT22;37845;53.196;5.638;2023-02-28T00:18:43;4.60;99.90
51783;DHT22;37845;53.196;5.638;2023-02-28T00:21:09;5.00;99.90
51783;DHT22;37845;53.196;5.638;2023-02-28T00:23:35;5.20;99.90
51783;DHT22;37845;53.196;5.638;2023-02-28T00:26:01;4.50;99.90
51783;DHT22;37845;53.196;5.638;2023-02-28T00:28:27;5.20;99.90
51783;DHT22;37845;53.196;5.638;2023-02-28T00:30:53;4.90;99.90
51783;DHT22;37845;53.196;5.638;2023-02-28T00:33:18;4.50;99.90
51783;DHT22;37845;53.196;5.638;2023-02-28T00:35:44;4.60;99.90
51783;DHT22;37845;53.196;5.638;2023-02-28T00:38:14;4.50;99.90
51783;DHT22;37845;53.196;5.638;2023-02-28T00:40:40;4.60;99.90
51783;DHT22;37845;53.196;5.638;2023-02-28T00:43:06;5.20;99.90
51783;DHT22;37845;53.196;5.638;2023-02-28T00:45:31;5.80;99.90
51783;DHT22;37845;53.196;5.638;2023-02-28T00:47:57;5.70;99.90
51783;DHT22;37845;53.196;5.638;2023-02-28T00:50:23;4.80;99.90
51783;DHT22;37845;53.196;5.638;2023-02-28T00:52:49;5.20;99.90
51783;DHT22;37845;53.196;5.638;2023-02-28T00:55:15;5.50;99.90
51783;DHT22;37845;53.196;5.638;2023-02-28T00:57:40;4.60;99.90
51783;DHT22;37845;53.196;5.638;2023-02-28T01:00:07;4.60;99.90
51783;DHT22;37845;53.196;5.638;2023-02-28T01:02:33;4.60;99.90
51783;DHT22;37845;53.196;5.638;2023-02-28T01:04:59;4.60;99.90
51783;DHT22;37845;53.196;5.638;2023-02-28T01:07:25;5.00;99.90
51783;DHT22;37845;53.196;5.638;2023-02-28T01:09:50;4.60;99.90
51783;DHT22;37845;53.196;5.638;2023-02-28T01:12:16;4.60;99.90
51783;DHT22;37845;53.196;5.638;2023-02-28T01:14:42;5.00;99.90
51783;DHT22;37845;53.196;5.638;2023-02-28T01:17:08;4.60;99.90
51783;DHT22;37845;53.196;5.638;2023-02-28T01:19:34;6.00;99.90
51783;DHT22;37845;53.196;5.638;2023-02-28T01:22:06;4.50;99.90
51783;DHT22;37845;53.196;5.638;2023-02-28T01:24:32;5.20;99.90
51783;DHT22;37845;53.196;5.638;2023-02-28T01:26:58;4.60;99.90
51783;DHT22;37845;53.196;5.638;2023-02-28T01:29:24;5.60;99.90
51783;DHT22;37845;53.196;5.638;2023-02-28T01:31:50;4.60;99.90
51783;DHT22;37845;53.196;5.638;2023-02-28T01:34:17;4.60;99.90
51783;DHT22;37845;53.196;5.638;2023-02-28T01:36:44;5.70;99.90
51783;DHT22;37845;53.196;5.638;2023-02-28T01:39:10;4.60;99.90
51783;DHT22;37845;53.196;5.638;2023-02-28T01:41:36;5.40;99.90
51783;DHT22;37845;53.196;5.638;2023-02-28T01:44:05;4.70;99.90
51783;DHT22;37845;53.196;5.638;2023-02-28T01:46:34;4.60;99.90
51783;DHT22;37845;53.196;5.638;2023-02-28T01:49:12;5.60;99.90
51783;DHT22;37845;53.196;5.638;2023-02-28T01:51:45;4.60;99.90
51783;DHT22;37845;53.196;5.638;2023-02-28T01:54:29;5.40;99.90
51783;DHT22;37845;53.196;5.638;2023-02-28T01:57:07;4.50;99.90
51783;DHT22;37845;53.196;5.638;2023-02-28T01:59:41;4.50;99.90
51783;DHT22;37845;53.196;5.638;2023-02-28T02:02:23;4.50;99.90
51783;DHT22;37845;53.196;5.638;2023-02-28T02:05:17;5.00;99.90
51783;DHT22;37845;53.196;5.638;2023-02-28T02:07:46;4.50;99.90
51783;DHT22;37845;53.196;5.638;2023-02-28T02:10:21;4.50;99.90
51783;DHT22;37845;53.196;5.638;2023-02-28T02:16:10;4.60;99.90
51783;DHT22;37845;53.196;5.638;2023-02-28T02:25:19;4.60;99.90
51783;DHT22;37845;53.196;5.638;2023-02-28T02:27:26;4.90;99.90
51783;DHT22;37845;53.196;5.638;2023-02-28T02:30:27;5.60;99.90
51783;DHT22;37845;53.196;5.638;2023-02-28T02:36:19;4.60;99.90
51783;DHT22;37845;53.196;5.638;2023-02-28T02:39:28;4.60;99.90
51783;DHT22;37845;53.196;5.638;2023-02-28T02:42:08;4.60;99.90
51783;DHT22;37845;53.196;5.638;2023-02-28T02:44:58;4.60;99.90
51783;DHT22;37845;53.196;5.638;2023-02-28T02:47:27;4.60;99.90
51783;DHT22;37845;53.196;5.638;2023-02-28T02:49:56;4.60;99.90
51783;DHT22;37845;53.196;5.638;2023-02-28T02:55:32;4.60;99.90
51783;DHT22;37845;53.196;5.638;2023-02-28T02:58:02;4.60;99.90
51783;DHT22;37845;53.196;5.638;2023-02-28T03:00:39;5.10;99.90
51783;DHT22;37845;53.196;5.638;2023-02-28T03:03:07;4.20;99.90
51783;DHT22;37845;53.196;5.638;2023-02-28T03:05:46;5.50;99.90
51783;DHT22;37845;53.196;5.638;2023-02-28T03:08:13;4.70;99.90
51783;DHT22;37845;53.196;5.638;2023-02-28T03:10:45;5.70;99.90
51783;DHT22;37845;53.196;5.638;2023-02-28T03:16:35;4.70;99.90
51783;DHT22;37845;53.196;5.638;2023-02-28T03:24:21;4.70;99.90
51783;DHT22;37845;53.196;5.638;2023-02-28T03:26:58;4.70;99.90
51783;DHT22;37845;53.196;5.638;2023-02-28T03:29:35;5.50;99.90
51783;DHT22;37845;53.196;5.638;2023-02-28T03:32:20;4.70;99.90
51783;DHT22;37845;53.196;5.638;2023-02-28T03:34:55;4.70;99.90
51783;DHT22;37845;53.196;5.638;2023-02-28T03:37:24;4.80;99.90
51783;DHT22;37845;53.196;5.638;2023-02-28T03:40:03;5.50;99.90
51783;DHT22;37845;53.196;5.638;2023-02-28T03:42:35;5.40;99.90
51783;DHT22;37845;53.196;5.638;2023-02-28T03:45:05;4.80;99.90
51783;DHT22;37845;53.196;5.638;2023-02-28T03:50:19;5.60;99.90
51783;DHT22;37845;53.196;5.638;2023-02-28T03:53:13;4.80;99.90
51783;DHT22;37845;53.196;5.638;2023-02-28T03:55:45;4.80;99.90
51783;DHT22;37845;53.196;5.638;2023-02-28T03:58:27;5.30;99.90
51783;DHT22;37845;53.196;5.638;2023-02-28T04:01:01;4.80;99.90
51783;DHT22;37845;53.196;5.638;2023-02-28T04:03:37;5.20;99.90
51783;DHT22;37845;53.196;5.638;2023-02-28T04:06:05;5.20;99.90
51783;DHT22;37845;53.196;5.638;2023-02-28T04:08:32;4.80;99.90
51783;DHT22;37845;53.196;5.638;2023-02-28T04:13:49;4.90;99.90
51783;DHT22;37845;53.196;5.638;2023-02-28T04:16:15;5.40;99.90
51783;DHT22;37845;53.196;5.638;2023-02-28T04:18:42;4.90;99.90
51783;DHT22;37845;53.196;5.638;2023-02-28T04:21:11;6.00;99.90
51783;DHT22;37845;53.196;5.638;2023-02-28T04:23:37;4.80;99.90
51783;DHT22;37845;53.196;5.638;2023-02-28T04:26:03;5.60;99.90
51783;DHT22;37845;53.196;5.638;2023-02-28T04:28:29;4.90;99.90
51783;DHT22;37845;53.196;5.638;2023-02-28T04:31:00;4.90;99.90
51783;DHT22;37845;53.196;5.638;2023-02-28T04:33:27;4.90;99.90
51783;DHT22;37845;53.196;5.638;2023-02-28T04:38:25;5.20;99.90
51783;DHT22;37845;53.196;5.638;2023-02-28T04:40:51;5.40;99.90
51783;DHT22;37845;53.196;5.638;2023-02-28T04:43:17;5.00;99.90
51783;DHT22;37845;53.196;5.638;2023-02-28T04:45:42;5.00;99.90
51783;DHT22;37845;53.196;5.638;2023-02-28T04:48:08;6.00;99.90
51783;DHT22;37845;53.196;5.638;2023-02-28T04:50:33;5.50;99.90
51783;DHT22;37845;53.196;5.638;2023-02-28T04:52:59;5.20;99.90
51783;DHT22;37845;53.196;5.638;2023-02-28T04:55:25;6.00;99.90
51783;DHT22;37845;53.196;5.638;2023-02-28T04:57:51;5.00;99.90
51783;DHT22;37845;53.196;5.638;2023-02-28T05:00:17;5.30;99.90
51783;DHT22;37845;53.196;5.638;2023-02-28T05:02:42;5.10;99.90
51783;DHT22;37845;53.196;5.638;2023-02-28T05:05:08;5.10;99.90
51783;DHT22;37845;53.196;5.638;2023-02-28T05:07:34;5.60;99.90
51783;DHT22;37845;53.196;5.638;2023-02-28T05:10:00;5.10;99.90
51783;DHT22;37845;53.196;5.638;2023-02-28T05:12:25;5.50;99.90
51783;DHT22;37845;53.196;5.638;2023-02-28T05:14:51;6.00;99.90
51783;DHT22;37845;53.196;5.638;2023-02-28T05:17:17;5.20;99.90
51783;DHT22;37845;53.196;5.638;2023-02-28T05:19:42;5.10;99.90
51783;DHT22;37845;53.196;5.638;2023-02-28T05:22:13;4.20;99.90
51783;DHT22;37845;53.196;5.638;2023-02-28T05:24:40;5.20;99.90
51783;DHT22;37845;53.196;5.638;2023-02-28T05:27:07;5.20;99.90
51783;DHT22;37845;53.196;5.638;2023-02-28T05:29:33;6.30;99.90
51783;DHT22;37845;53.196;5.638;2023-02-28T05:31:59;6.10;99.90
51783;DHT22;37845;53.196;5.638;2023-02-28T05:34:25;5.30;99.90
51783;DHT22;37845;53.196;5.638;2023-02-28T05:36:51;5.30;99.90
51783;DHT22;37845;53.196;5.638;2023-02-28T05:39:17;6.60;99.90
51783;DHT22;37845;53.196;5.638;2023-02-28T05:41:43;5.30;99.90
51783;DHT22;37845;53.196;5.638;2023-02-28T05:44:09;5.30;99.90
51783;DHT22;37845;53.196;5.638;2023-02-28T05:46:35;5.30;99.90
51783;DHT22;37845;53.196;5.638;2023-02-28T05:49:01;5.30;99.90
51783;DHT22;37845;53.196;5.638;2023-02-28T05:51:27;6.10;99.90
51783;DHT22;37845;53.196;5.638;2023-02-28T05:53:53;5.90;99.90
51783;DHT22;37845;53.196;5.638;2023-02-28T05:56:20;5.30;99.90
51783;DHT22;37845;53.196;5.638;2023-02-28T05:58:46;5.30;99.90
51783;DHT22;37845;53.196;5.638;2023-02-28T06:01:36;6.20;99.90
51783;DHT22;37845;53.196;5.638;2023-02-28T06:04:03;5.30;99.90
51783;DHT22;37845;53.196;5.638;2023-02-28T06:06:29;5.40;99.90
51783;DHT22;37845;53.196;5.638;2023-02-28T06:08:55;6.30;99.90
51783;DHT22;37845;53.196;5.638;2023-02-28T06:11:21;5.30;99.90
51783;DHT22;37845;53.196;5.638;2023-02-28T06:13:54;5.40;99.90
51783;DHT22;37845;53.196;5.638;2023-02-28T06:16:21;5.90;99.90
51783;DHT22;37845;53.196;5.638;2023-02-28T06:18:47;5.30;99.90
51783;DHT22;37845;53.196;5.638;2023-02-28T06:21:13;6.10;99.90
51783;DHT22;37845;53.196;5.638;2023-02-28T06:23:38;6.50;99.90
51783;DHT22;37845;53.196;5.638;2023-02-28T06:26:05;5.40;99.90
51783;DHT22;37845;53.196;5.638;2023-02-28T06:28:31;5.90;99.90
51783;DHT22;37845;53.196;5.638;2023-02-28T06:30:56;6.60;99.90
51783;DHT22;37845;53.196;5.638;2023-02-28T06:33:22;6.50;99.90
51783;DHT22;37845;53.196;5.638;2023-02-28T06:35:51;5.60;99.90
51783;DHT22;37845;53.196;5.638;2023-02-28T06:38:17;5.60;99.90
51783;DHT22;37845;53.196;5.638;2023-02-28T06:40:43;6.50;99.90
51783;DHT22;37845;53.196;5.638;2023-02-28T06:43:09;6.40;99.90
51783;DHT22;37845;53.196;5.638;2023-02-28T06:45:42;6.00;99.90
51783;DHT22;37845;53.196;5.638;2023-02-28T06:48:08;5.40;99.90
51783;DHT22;37845;53.196;5.638;2023-02-28T06:50:34;5.40;99.90
51783;DHT22;37845;53.196;5.638;2023-02-28T06:53:00;5.40;99.90
51783;DHT22;37845;53.196;5.638;2023-02-28T06:55:25;5.40;99.90
51783;DHT22;37845;53.196;5.638;2023-02-28T06:57:51;5.40;99.90
51783;DHT22;37845;53.196;5.638;2023-02-28T07:00:17;5.30;99.90
51783;DHT22;37845;53.196;5.638;2023-02-28T07:02:43;5.10;99.90
51783;DHT22;37845;53.196;5.638;2023-02-28T07:05:09;5.00;99.90
51783;DHT22;37845;53.196;5.638;2023-02-28T07:07:34;5.80;99.90
51783;DHT22;37845;53.196;5.638;2023-02-28T07:10:01;5.10;99.90
51783;DHT22;37845;53.196;5.638;2023-02-28T07:12:27;4.80;99.90
51783;DHT22;37845;53.196;5.638;2023-02-28T07:14:53;4.80;99.90
51783;DHT22;37845;53.196;5.638;2023-02-28T07:17:21;4.90;99.90
51783;DHT22;37845;53.196;5.638;2023-02-28T07:19:46;4.70;99.90
51783;DHT22;37845;53.196;5.638;2023-02-28T07:22:12;5.40;99.90
51783;DHT22;37845;53.196;5.638;2023-02-28T07:24:38;5.20;99.90
51783;DHT22;37845;53.196;5.638;2023-02-28T07:27:04;4.40;99.90
51783;DHT22;37845;53.196;5.638;2023-02-28T07:29:30;5.60;99.90
51783;DHT22;37845;53.196;5.638;2023-02-28T07:31:56;4.30;99.90
51783;DHT22;37845;53.196;5.638;2023-02-28T07:34:22;4.20;99.90
51783;DHT22;37845;53.196;5.638;2023-02-28T07:36:48;4.10;99.90
51783;DHT22;37845;53.196;5.638;2023-02-28T07:39:14;4.70;99.90
51783;DHT22;37845;53.196;5.638;2023-02-28T07:41:40;4.90;99.90
51783;DHT22;37845;53.196;5.638;2023-02-28T07:44:12;5.20;99.90
51783;DHT22;37845;53.196;5.638;2023-02-28T07:46:38;5.10;99.90
51783;DHT22;37845;53.196;5.638;2023-02-28T07:49:04;4.10;99.90
51783;DHT22;37845;53.196;5.638;2023-02-28T07:51:30;4.10;99.90
51783;DHT22;37845;53.196;5.638;2023-02-28T07:53:57;4.10;99.90
51783;DHT22;37845;53.196;5.638;2023-02-28T07:56:22;4.10;99.90
51783;DHT22;37845;53.196;5.638;2023-02-28T07:58:48;4.10;99.90
51783;DHT22;37845;53.196;5.638;2023-02-28T08:01:14;4.10;99.90
51783;DHT22;37845;53.196;5.638;2023-02-28T08:03:40;4.10;99.90
51783;DHT22;37845;53.196;5.638;2023-02-28T08:06:08;4.10;99.90
51783;DHT22;37845;53.196;5.638;2023-02-28T08:08:40;4.10;99.90
51783;DHT22;37845;53.196;5.638;2023-02-28T08:11:05;4.60;99.90
51783;DHT22;37845;53.196;5.638;2023-02-28T08:13:31;4.10;99.90
51783;DHT22;37845;53.196;5.638;2023-02-28T08:15:57;4.40;99.90
51783;DHT22;37845;53.196;5.638;2023-02-28T08:18:23;4.80;99.90
51783;DHT22;37845;53.196;5.638;2023-02-28T08:20:49;5.20;99.90
51783;DHT22;37845;53.196;5.638;2023-02-28T08:23:15;4.00;99.90
51783;DHT22;37845;53.196;5.638;2023-02-28T08:25:41;4.20;99.90
51783;DHT22;37845;53.196;5.638;2023-02-28T08:28:06;4.00;99.90
51783;DHT22;37845;53.196;5.638;2023-02-28T08:30:32;4.40;99.90
51783;DHT22;37845;53.196;5.638;2023-02-28T08:32:58;5.10;99.90
51783;DHT22;37845;53.196;5.638;2023-02-28T08:35:24;4.50;99.90
51783;DHT22;37845;53.196;5.638;2023-02-28T08:37:49;5.00;99.90
51783;DHT22;37845;53.196;5.638;2023-02-28T08:40:16;4.60;99.90
51783;DHT22;37845;53.196;5.638;2023-02-28T08:42:47;4.10;99.90
51783;DHT22;37845;53.196;5.638;2023-02-28T08:45:14;4.50;99.90
51783;DHT22;37845;53.196;5.638;2023-02-28T08:47:40;4.10;99.90
51783;DHT22;37845;53.196;5.638;2023-02-28T08:50:07;4.20;99.90
51783;DHT22;37845;53.196;5.638;2023-02-28T08:52:33;4.20;99.90
51783;DHT22;37845;53.196;5.638;2023-02-28T08:54:59;4.80;99.90
51783;DHT22;37845;53.196;5.638;2023-02-28T08:57:25;4.20;99.90
51783;DHT22;37845;53.196;5.638;2023-02-28T08:59:53;4.20;99.90
51783;DHT22;37845;53.196;5.638;2023-02-28T09:02:19;5.00;99.90
51783;DHT22;37845;53.196;5.638;2023-02-28T09:04:45;4.30;99.90
51783;DHT22;37845;53.196;5.638;2023-02-28T09:07:11;4.30;99.90
51783;DHT22;37845;53.196;5.638;2023-02-28T09:09:37;4.30;99.90
51783;DHT22;37845;53.196;5.638;2023-02-28T09:12:04;4.30;99.90
51783;DHT22;37845;53.196;5.638;2023-02-28T09:14:30;4.40;99.90
51783;DHT22;37845;53.196;5.638;2023-02-28T09:16:56;5.10;99.90
51783;DHT22;37845;53.196;5.638;2023-02-28T09:19:22;4.40;99.90
51783;DHT22;37845;53.196;5.638;2023-02-28T09:21:47;4.50;99.90
51783;DHT22;37845;53.196;5.638;2023-02-28T09:24:13;5.30;99.90
51783;DHT22;37845;53.196;5.638;2023-02-28T09:26:40;4.70;99.90
51783;DHT22;37845;53.196;5.638;2023-02-28T09:29:06;5.60;99.90
51783;DHT22;37845;53.196;5.638;2023-02-28T09:31:32;4.60;99.90
51783;DHT22;37845;53.196;5.638;2023-02-28T09:33:58;5.30;99.90
51783;DHT22;37845;53.196;5.638;2023-02-28T09:36:26;4.60;99.90
51783;DHT22;37845;53.196;5.638;2023-02-28T09:38:52;5.40;99.90
51783;DHT22;37845;53.196;5.638;2023-02-28T09:41:25;6.10;99.90
51783;DHT22;37845;53.196;5.638;2023-02-28T09:44:00;4.60;99.90
51783;DHT22;37845;53.196;5.638;2023-02-28T09:46:35;5.30;99.90
51783;DHT22;37845;53.196;5.638;2023-02-28T09:49:07;4.70;99.90
51783;DHT22;37845;53.196;5.638;2023-02-28T09:54:05;4.70;99.90
51783;DHT22;37845;53.196;5.638;2023-02-28T09:56:39;5.50;99.90
51783;DHT22;37845;53.196;5.638;2023-02-28T09:59:39;4.70;99.90
51783;DHT22;37845;53.196;5.638;2023-02-28T10:05:13;4.80;99.90
51783;DHT22;37845;53.196;5.638;2023-02-28T10:10:42;4.90;99.90
51783;DHT22;37845;53.196;5.638;2023-02-28T10:16:16;4.90;99.90
51783;DHT22;37845;53.196;5.638;2023-02-28T10:18:52;4.00;99.90
51783;DHT22;37845;53.196;5.638;2023-02-28T10:21:35;5.70;99.90
51783;DHT22;37845;53.196;5.638;2023-02-28T10:26:47;5.00;99.90
51783;DHT22;37845;53.196;5.638;2023-02-28T10:29:14;5.40;99.90
51783;DHT22;37845;53.196;5.638;2023-02-28T10:31:40;5.00;99.90
51783;DHT22;37845;53.196;5.638;2023-02-28T10:34:07;5.10;99.90
51783;DHT22;37845;53.196;5.638;2023-02-28T10:36:33;5.70;99.90
51783;DHT22;37845;53.196;5.638;2023-02-28T10:39:35;5.00;99.90
51783;DHT22;37845;53.196;5.638;2023-02-28T10:42:02;5.10;99.90
51783;DHT22;37845;53.196;5.638;2023-02-28T10:44:27;5.10;99.90
51783;DHT22;37845;53.196;5.638;2023-02-28T10:46:53;5.30;99.90
51783;DHT22;37845;53.196;5.638;2023-02-28T10:49:23;5.40;99.90
51783;DHT22;37845;53.196;5.638;2023-02-28T10:51:55;6.00;99.90
51783;DHT22;37845;53.196;5.638;2023-02-28T10:54:29;6.30;99.90
51783;DHT22;37845;53.196;5.638;2023-02-28T10:57:27;5.80;99.90
51783;DHT22;37845;53.196;5.638;2023-02-28T11:00:21;5.80;99.90
51783;DHT22;37845;53.196;5.638;2023-02-28T11:02:47;5.90;99.90
51783;DHT22;37845;53.196;5.638;2023-02-28T11:05:35;6.40;99.90
51783;DHT22;37845;53.196;5.638;2023-02-28T11:08:17;5.80;99.90
51783;DHT22;37845;53.196;5.638;2023-02-28T11:10:47;5.80;99.90
51783;DHT22;37845;53.196;5.638;2023-02-28T11:13:21;5.90;99.90
51783;DHT22;37845;53.196;5.638;2023-02-28T11:15:57;6.00;99.90
51783;DHT22;37845;53.196;5.638;2023-02-28T11:18:46;6.20;99.90
51783;DHT22;37845;53.196;5.638;2023-02-28T11:21:33;6.10;99.90
51783;DHT22;37845;53.196;5.638;2023-02-28T11:26:49;6.30;99.90
51783;DHT22;37845;53.196;5.638;2023-02-28T11:29:21;6.60;99.90
51783;DHT22;37845;53.196;5.638;2023-02-28T11:34:37;6.30;99.90
51783;DHT22;37845;53.196;5.638;2023-02-28T11:37:05;6.40;99.90
51783;DHT22;37845;53.196;5.638;2023-02-28T11:39:35;6.40;99.90
51783;DHT22;37845;53.196;5.638;2023-02-28T11:52:45;6.70;99.90
51783;DHT22;37845;53.196;5.638;2023-02-28T11:55:32;6.90;99.90
51783;DHT22;37845;53.196;5.638;2023-02-28T11:58:26;6.80;99.90
51783;DHT22;37845;53.196;5.638;2023-02-28T12:01:09;6.90;99.90
51783;DHT22;37845;53.196;5.638;2023-02-28T12:17:40;7.50;99.90
51783;DHT22;37845;53.196;5.638;2023-02-28T12:28:52;7.50;99.90
51783;DHT22;37845;53.196;5.638;2023-02-28T12:31:24;7.70;99.90
51783;DHT22;37845;53.196;5.638;2023-02-28T12:34:09;7.70;99.90
51783;DHT22;37845;53.196;5.638;2023-02-28T12:36:37;7.60;99.90
51783;DHT22;37845;53.196;5.638;2023-02-28T12:39:28;7.90;99.90
51783;DHT22;37845;53.196;5.638;2023-02-28T12:41:59;7.00;99.90
51783;DHT22;37845;53.196;5.638;2023-02-28T12:44:48;7.40;99.90
51783;DHT22;37845;53.196;5.638;2023-02-28T12:47:16;7.30;99.90
51783;DHT22;37845;53.196;5.638;2023-02-28T12:53:08;7.30;99.90
51783;DHT22;37845;53.196;5.638;2023-02-28T12:56:09;7.30;99.90
51783;DHT22;37845;53.196;5.638;2023-02-28T12:58:51;7.40;99.90
51783;DHT22;37845;53.196;5.638;2023-02-28T13:09:33;7.30;99.90
51783;DHT22;37845;53.196;5.638;2023-02-28T13:11:59;7.20;99.90
51783;DHT22;37845;53.196;5.638;2023-02-28T13:14:30;7.30;99.90
51783;DHT22;37845;53.196;5.638;2023-02-28T13:19:37;7.20;99.90
51783;DHT22;37845;53.196;5.638;2023-02-28T13:22:04;7.40;99.90
51783;DHT22;37845;53.196;5.638;2023-02-28T13:29:35;7.20;99.90
51783;DHT22;37845;53.196;5.638;2023-02-28T13:34:34;7.40;99.90
51783;DHT22;37845;53.196;5.638;2023-02-28T13:39:52;7.40;99.90
51783;DHT22;37845;53.196;5.638;2023-02-28T14:01:14;7.30;99.90
51783;DHT22;37845;53.196;5.638;2023-02-28T14:03:45;7.30;99.90
51783;DHT22;37845;53.196;5.638;2023-02-28T14:06:30;7.80;99.90
51783;DHT22;37845;53.196;5.638;2023-02-28T14:09:39;7.30;99.90
51783;DHT22;37845;53.196;5.638;2023-02-28T14:15:30;7.30;99.90
51783;DHT22;37845;53.196;5.638;2023-02-28T14:18:13;7.30;99.90
51783;DHT22;37845;53.196;5.638;2023-02-28T14:20:40;7.30;99.90
51783;DHT22;37845;53.196;5.638;2023-02-28T14:23:12;7.50;99.90
51783;DHT22;37845;53.196;5.638;2023-02-28T14:26:13;7.30;99.90
51783;DHT22;37845;53.196;5.638;2023-02-28T14:28:56;7.30;99.90
51783;DHT22;37845;53.196;5.638;2023-02-28T14:31:34;7.30;99.90
51783;DHT22;37845;53.196;5.638;2023-02-28T14:34:22;7.30;99.90
51783;DHT22;37845;53.196;5.638;2023-02-28T14:36:50;7.30;99.90
51783;DHT22;37845;53.196;5.638;2023-02-28T14:39:25;8.20;99.90
51783;DHT22;37845;53.196;5.638;2023-02-28T14:41:51;7.50;99.90
51783;DHT22;37845;53.196;5.638;2023-02-28T14:46:44;7.30;99.90
51783;DHT22;37845;53.196;5.638;2023-02-28T14:49:20;7.20;99.90
51783;DHT22;37845;53.196;5.638;2023-02-28T14:51:49;7.40;99.90
51783;DHT22;37845;53.196;5.638;2023-02-28T14:54:17;7.30;99.90
51783;DHT22;37845;53.196;5.638;2023-02-28T14:56:49;7.20;99.90
51783;DHT22;37845;53.196;5.638;2023-02-28T14:59:24;7.50;99.90
51783;DHT22;37845;53.196;5.638;2023-02-28T15:01:50;7.20;99.90
51783;DHT22;37845;53.196;5.638;2023-02-28T15:04:24;7.40;99.90
51783;DHT22;37845;53.196;5.638;2023-02-28T15:07:13;7.10;99.90
51783;DHT22;37845;53.196;5.638;2023-02-28T15:09:40;7.10;99.90
51783;DHT22;37845;53.196;5.638;2023-02-28T15:12:06;7.10;99.90
51783;DHT22;37845;53.196;5.638;2023-02-28T15:14:34;7.10;99.90
51783;DHT22;37845;53.196;5.638;2023-02-28T15:17:08;7.10;99.90
51783;DHT22;37845;53.196;5.638;2023-02-28T15:19:40;7.10;99.90
51783;DHT22;37845;53.196;5.638;2023-02-28T15:22:12;7.20;99.90
51783;DHT22;37845;53.196;5.638;2023-02-28T15:24:48;7.10;99.90
51783;DHT22;37845;53.196;5.638;2023-02-28T15:27:23;7.10;99.90
51783;DHT22;37845;53.196;5.638;2023-02-28T15:29:54;7.10;99.90
51783;DHT22;37845;53.196;5.638;2023-02-28T15:32:36;7.10;99.90
51783;DHT22;37845;53.196;5.638;2023-02-28T15:35:19;7.10;99.90
51783;DHT22;37845;53.196;5.638;2023-02-28T15:37:48;7.50;99.90
51783;DHT22;37845;53.196;5.638;2023-02-28T15:45:59;7.00;99.90
51783;DHT22;37845;53.196;5.638;2023-02-28T15:48:53;6.90;99.90
51783;DHT22;37845;53.196;5.638;2023-02-28T15:51:21;6.90;99.90
51783;DHT22;37845;53.196;5.638;2023-02-28T15:53:51;6.80;99.90
51783;DHT22;37845;53.196;5.638;2023-02-28T15:56:39;7.00;99.90
51783;DHT22;37845;53.196;5.638;2023-02-28T15:59:15;6.70;99.90
51783;DHT22;37845;53.196;5.638;2023-02-28T16:01:42;6.60;99.90
51783;DHT22;37845;53.196;5.638;2023-02-28T16:04:17;6.60;99.90
51783;DHT22;37845;53.196;5.638;2023-02-28T16:09:17;6.50;99.90
51783;DHT22;37845;53.196;5.638;2023-02-28T16:11:47;6.40;99.90
51783;DHT22;37845;53.196;5.638;2023-02-28T16:14:21;6.40;99.90
51783;DHT22;37845;53.196;5.638;2023-02-28T16:16:55;6.30;99.90
51783;DHT22;37845;53.196;5.638;2023-02-28T16:19:22;6.40;99.90
51783;DHT22;37845;53.196;5.638;2023-02-28T16:21:48;6.40;99.90
51783;DHT22;37845;53.196;5.638;2023-02-28T16:24:17;6.40;99.90
51783;DHT22;37845;53.196;5.638;2023-02-28T16:26:46;6.40;99.90
51783;DHT22;37845;53.196;5.638;2023-02-28T16:31:49;6.50;99.90
51783;DHT22;37845;53.196;5.638;2023-02-28T16:34:15;7.00;99.90
51783;DHT22;37845;53.196;5.638;2023-02-28T16:36:41;6.50;99.90
51783;DHT22;37845;53.196;5.638;2023-02-28T16:39:07;6.40;99.90
51783;DHT22;37845;53.196;5.638;2023-02-28T16:41:34;6.40;99.90
51783;DHT22;37845;53.196;5.638;2023-02-28T16:44:00;6.40;99.90
51783;DHT22;37845;53.196;5.638;2023-02-28T16:46:33;6.80;99.90
51783;DHT22;37845;53.196;5.638;2023-02-28T16:48:59;6.50;99.90
51783;DHT22;37845;53.196;5.638;2023-02-28T16:51:25;6.90;99.90
51783;DHT22;37845;53.196;5.638;2023-02-28T16:53:51;6.70;99.90
51783;DHT22;37845;53.196;5.638;2023-02-28T16:56:22;6.50;99.90
51783;DHT22;37845;53.196;5.638;2023-02-28T16:58:50;6.40;99.90
51783;DHT22;37845;53.196;5.638;2023-02-28T17:01:17;6.30;99.90
51783;DHT22;37845;53.196;5.638;2023-02-28T17:03:48;6.20;99.90
51783;DHT22;37845;53.196;5.638;2023-02-28T17:06:24;6.20;99.90
51783;DHT22;37845;53.196;5.638;2023-02-28T17:08:51;6.10;99.90
51783;DHT22;37845;53.196;5.638;2023-02-28T17:11:17;7.20;99.90
51783;DHT22;37845;53.196;5.638;2023-02-28T17:13:43;5.90;99.90
51783;DHT22;37845;53.196;5.638;2023-02-28T17:16:30;5.90;99.90
51783;DHT22;37845;53.196;5.638;2023-02-28T17:19:03;5.80;99.90
51783;DHT22;37845;53.196;5.638;2023-02-28T17:21:29;5.80;99.90
51783;DHT22;37845;53.196;5.638;2023-02-28T17:23:55;5.70;99.90
51783;DHT22;37845;53.196;5.638;2023-02-28T17:26:22;6.20;99.90
51783;DHT22;37845;53.196;5.638;2023-02-28T17:28:51;6.40;99.90
51783;DHT22;37845;53.196;5.638;2023-02-28T17:31:17;5.90;99.90
51783;DHT22;37845;53.196;5.638;2023-02-28T17:33:43;5.90;99.90
51783;DHT22;37845;53.196;5.638;2023-02-28T17:36:22;5.80;99.90
51783;DHT22;37845;53.196;5.638;2023-02-28T17:38:53;6.40;99.90
51783;DHT22;37845;53.196;5.638;2023-02-28T17:41:49;5.60;99.90
51783;DHT22;37845;53.196;5.638;2023-02-28T17:44:14;6.00;99.90
51783;DHT22;37845;53.196;5.638;2023-02-28T17:46:46;5.80;99.90
51783;DHT22;37845;53.196;5.638;2023-02-28T17:49:23;5.70;99.90
51783;DHT22;37845;53.196;5.638;2023-02-28T17:54:57;6.30;99.90
51783;DHT22;37845;53.196;5.638;2023-02-28T17:57:23;5.60;99.90
51783;DHT22;37845;53.196;5.638;2023-02-28T17:59:52;5.60;99.90
51783;DHT22;37845;53.196;5.638;2023-02-28T18:02:21;5.60;99.90
51783;DHT22;37845;53.196;5.638;2023-02-28T18:04:46;7.10;99.90
51783;DHT22;37845;53.196;5.638;2023-02-28T18:07:12;5.50;99.90
51783;DHT22;37845;53.196;5.638;2023-02-28T18:09:38;6.50;99.90
51783;DHT22;37845;53.196;5.638;2023-02-28T18:12:04;5.30;99.90
51783;DHT22;37845;53.196;5.638;2023-02-28T18:14:30;5.30;99.90
51783;DHT22;37845;53.196;5.638;2023-02-28T18:16:55;5.60;99.90
51783;DHT22;37845;53.196;5.638;2023-02-28T18:19:22;5.20;99.90
51783;DHT22;37845;53.196;5.638;2023-02-28T18:21:52;5.90;99.90
51783;DHT22;37845;53.196;5.638;2023-02-28T18:24:20;5.00;99.90
51783;DHT22;37845;53.196;5.638;2023-02-28T18:26:47;5.00;99.90
51783;DHT22;37845;53.196;5.638;2023-02-28T18:29:26;5.00;99.90
51783;DHT22;37845;53.196;5.638;2023-02-28T18:31:54;5.70;99.90
51783;DHT22;37845;53.196;5.638;2023-02-28T18:34:21;5.30;99.90